Time;durP1;ratioP1;P1;durP2;ratioP2;P2;SDS_P1;SDS_P2;PMS_P1;PMS_P2;Temp;Humidity;BMP_temperature;BMP_pressure;BME280_temperature;BME280_humidity;BME280_pressure;Samples;Min_cycle;Max_cycle;Signal;HPM_P1;HPM_P2
2021/09/11 00:01:13;;;;;;;16.47;10.20;;;20.30;79.50;;;;;;5033962;28;20474;-68
2021/09/11 00:03:45;;;;;;;11.70;10.70;;;20.40;79.20;;;;;;5034169;28;20536;-69
2021/09/11 00:06:12;;;;;;;12.40;11.13;;;20.40;79.10;;;;;;5033870;28;20481;-70
2021/09/11 00:08:40;;;;;;;10.97;9.87;;;20.40;78.40;;;;;;5054408;28;20974;-68
2021/09/11 00:11:11;;;;;;;10.60;9.50;;;20.40;78.50;;;;;;5054409;28;20852;-68
2021/09/11 00:13:38;;;;;;;12.17;9.80;;;20.40;78.50;;;;;;5053964;28;20519;-68
2021/09/11 00:16:06;;;;;;;10.23;9.13;;;20.40;78.50;;;;;;5039955;28;20508;-68
2021/09/11 00:18:36;;;;;;;7.53;6.83;;;20.40;78.40;;;;;;5034007;28;20437;-70
2021/09/11 00:21:03;;;;;;;7.90;6.93;;;20.40;78.30;;;;;;5046077;28;20472;-68
2021/09/11 00:23:35;;;;;;;7.90;7.10;;;20.40;78.10;;;;;;5054201;28;20560;-69
2021/09/11 00:26:02;;;;;;;6.83;5.73;;;20.40;78.10;;;;;;5042286;28;20479;-67
2021/09/11 00:28:33;;;;;;;7.17;6.27;;;20.40;78.50;;;;;;5033874;28;20438;-68
2021/09/11 00:31:05;;;;;;;11.10;8.07;;;20.40;78.50;;;;;;5033660;28;20500;-68
2021/09/11 00:33:37;;;;;;;7.40;6.37;;;20.40;78.90;;;;;;5042244;28;20443;-68
2021/09/11 00:36:05;;;;;;;7.33;6.30;;;20.30;79.00;;;;;;5053543;28;20528;-68
2021/09/11 00:38:32;;;;;;;8.00;6.80;;;20.30;79.00;;;;;;5052843;28;20437;-68
2021/09/11 00:41:01;;;;;;;7.97;7.17;;;20.30;78.40;;;;;;5053920;28;20433;-68
2021/09/11 00:43:34;;;;;;;7.73;7.03;;;20.30;78.40;;;;;;5045336;28;20444;-68
2021/09/11 00:46:03;;;;;;;9.20;7.90;;;20.20;79.00;;;;;;5033495;28;20482;-68
2021/09/11 00:48:34;;;;;;;9.57;8.57;;;20.20;79.40;;;;;;5051602;28;20443;-67
2021/09/11 00:51:01;;;;;;;9.70;8.37;;;20.20;80.30;;;;;;5053809;28;20476;-67
2021/09/11 00:53:29;;;;;;;8.20;7.43;;;20.10;80.60;;;;;;5052631;28;20473;-67
2021/09/11 00:56:01;;;;;;;8.40;7.60;;;20.10;81.10;;;;;;5053293;28;20810;-68
2021/09/11 00:58:28;;;;;;;9.17;8.07;;;20.00;81.40;;;;;;5050292;28;20510;-67
2021/09/11 01:00:57;;;;;;;9.77;8.77;;;20.00;81.90;;;;;;5053021;28;20871;-68
2021/09/11 01:03:29;;;;;;;11.40;8.77;;;20.10;82.20;;;;;;5052753;28;20819;-68
2021/09/11 01:05:56;;;;;;;11.97;9.83;;;20.00;82.10;;;;;;5053240;28;20662;-68
2021/09/11 01:08:25;;;;;;;10.67;9.60;;;20.10;82.40;;;;;;5052011;28;20859;-68
2021/09/11 01:10:52;;;;;;;10.33;8.63;;;20.10;82.50;;;;;;5053019;28;20437;-68
2021/09/11 01:13:22;;;;;;;9.67;8.67;;;20.10;82.50;;;;;;5052564;28;20432;-68
2021/09/11 01:15:56;;;;;;;9.90;8.90;;;20.00;82.90;;;;;;5052606;28;20982;-68
2021/09/11 01:18:25;;;;;;;10.00;9.00;;;20.10;82.90;;;;;;5038666;28;20833;-68
2021/09/11 01:23:40;;;;;;;8.97;8.07;;;20.00;83.20;;;;;;5046874;28;20471;-68
2021/09/11 01:26:08;;;;;;;9.20;8.30;;;20.10;83.50;;;;;;5032861;28;20492;-68
2021/09/11 01:28:37;;;;;;;10.73;9.63;;;20.00;83.60;;;;;;5036981;28;20536;-67
2021/09/11 01:31:06;;;;;;;10.20;8.57;;;20.00;84.30;;;;;;5052398;28;20532;-68
2021/09/11 01:33:37;;;;;;;11.27;9.10;;;19.90;84.70;;;;;;5051956;28;20755;-67
2021/09/11 01:36:05;;;;;;;10.60;9.43;;;19.80;85.30;;;;;;5052528;28;20655;-67
2021/09/11 01:38:33;;;;;;;10.87;9.80;;;19.70;86.10;;;;;;5049644;28;20524;-67
2021/09/11 01:41:02;;;;;;;10.20;9.20;;;19.70;86.20;;;;;;5032400;28;20620;-68
2021/09/11 01:43:30;;;;;;;9.47;8.10;;;19.70;86.40;;;;;;5032286;28;20529;-68
2021/09/11 01:46:03;;;;;;;9.93;8.97;;;19.70;86.30;;;;;;5032377;28;20563;-68
2021/09/11 01:48:33;;;;;;;11.40;9.30;;;19.80;86.40;;;;;;5032061;28;20449;-67
2021/09/11 01:51:04;;;;;;;10.07;9.17;;;19.80;86.30;;;;;;5048535;28;20476;-67
2021/09/11 01:53:35;;;;;;;10.17;8.97;;;19.80;86.20;;;;;;5044313;28;20430;-68
2021/09/11 01:56:03;;;;;;;9.63;8.63;;;19.80;86.40;;;;;;5032559;28;20512;-67
2021/09/11 01:58:35;;;;;;;10.10;8.90;;;19.80;86.70;;;;;;5031722;28;20448;-67
2021/09/11 02:01:06;;;;;;;8.43;7.63;;;19.80;87.20;;;;;;5032172;28;20981;-68
2021/09/11 02:03:38;;;;;;;12.30;9.17;;;19.70;87.30;;;;;;5048311;28;20476;-68
2021/09/11 02:06:10;;;;;;;11.53;10.43;;;19.60;87.50;;;;;;5052176;28;20568;-67
2021/09/11 02:08:41;;;;;;;11.47;8.90;;;19.60;88.10;;;;;;5051660;28;20492;-67
2021/09/11 02:11:13;;;;;;;10.47;9.47;;;19.60;88.00;;;;;;5052413;28;20468;-67
2021/09/11 02:13:41;;;;;;;9.70;8.70;;;19.60;88.80;;;;;;5036205;28;20473;-69
2021/09/11 02:16:17;;;;;;;11.07;9.97;;;19.60;89.00;;;;;;5038482;28;20496;-68
2021/09/11 02:18:45;;;;;;;11.97;9.63;;;19.60;89.40;;;;;;5034267;28;20433;-68
2021/09/11 02:21:12;;;;;;;11.33;10.23;;;19.60;89.90;;;;;;5033869;28;20519;-68
2021/09/11 02:23:41;;;;;;;10.00;8.83;;;19.60;90.00;;;;;;5035755;28;20529;-68
2021/09/11 02:26:12;;;;;;;10.00;9.00;;;19.60;90.10;;;;;;5036183;28;20567;-67
2021/09/11 02:28:49;;;;;;;10.57;9.13;;;19.60;90.00;;;;;;5035917;28;20548;-68
2021/09/11 02:31:19;;;;;;;9.80;8.80;;;19.60;90.00;;;;;;5036070;28;20516;-67
2021/09/11 02:33:52;;;;;;;10.63;9.53;;;19.50;90.10;;;;;;5036452;28;20448;-68
2021/09/11 02:36:21;;;;;;;11.30;9.07;;;19.50;90.10;;;;;;5035486;28;20524;-67
2021/09/11 02:38:52;;;;;;;10.93;9.70;;;19.50;90.20;;;;;;5035503;28;20469;-68
2021/09/11 02:41:21;;;;;;;11.77;10.57;;;19.40;90.50;;;;;;5037815;28;20528;-68
2021/09/11 02:43:50;;;;;;;10.77;9.67;;;19.30;90.80;;;;;;5055714;28;20527;-68
2021/09/11 02:46:19;;;;;;;11.93;10.70;;;19.40;91.10;;;;;;5054960;28;20485;-67
2021/09/11 02:48:48;;;;;;;10.73;9.63;;;19.40;91.30;;;;;;5055502;28;20440;-68
2021/09/11 02:51:19;;;;;;;11.83;10.63;;;19.40;91.30;;;;;;5055292;28;20447;-69
2021/09/11 02:53:46;;;;;;;9.27;8.33;;;19.40;91.40;;;;;;5035829;28;20480;-68
2021/09/11 02:56:14;;;;;;;10.47;9.37;;;19.40;91.40;;;;;;5035692;28;20445;-68
2021/09/11 02:58:43;;;;;;;9.43;8.50;;;19.40;91.50;;;;;;5054653;28;20942;-68
2021/09/11 03:01:10;;;;;;;15.67;9.93;;;19.40;91.50;;;;;;5055478;28;20445;-68
2021/09/11 03:03:39;;;;;;;10.67;9.57;;;19.40;91.50;;;;;;5054971;28;20865;-68
2021/09/11 03:06:10;;;;;;;13.60;10.93;;;19.40;91.50;;;;;;5055260;28;20575;-68
2021/09/11 03:08:42;;;;;;;10.13;9.10;;;19.40;91.60;;;;;;5055370;28;20476;-67
2021/09/11 03:11:12;;;;;;;14.17;9.50;;;19.40;91.60;;;;;;5055562;28;20536;-67
2021/09/11 03:13:46;;;;;;;9.43;8.43;;;19.30;91.60;;;;;;5054847;28;20491;-67
2021/09/11 03:16:22;;;;;;;9.80;8.80;;;19.30;91.60;;;;;;5054862;28;20496;-67
2021/09/11 03:18:50;;;;;;;8.37;7.57;;;19.20;91.60;;;;;;5054938;28;20599;-69
2021/09/11 03:21:22;;;;;;;13.10;6.83;;;19.10;91.60;;;;;;5055457;28;20527;-67
2021/09/11 03:23:49;;;;;;;9.07;6.70;;;19.10;91.60;;;;;;5055181;28;20468;-68
2021/09/11 03:26:17;;;;;;;7.30;6.60;;;19.00;91.80;;;;;;5055083;28;20476;-67
2021/09/11 03:28:45;;;;;;;6.23;5.63;;;18.90;91.70;;;;;;5038235;28;20474;-67
2021/09/11 03:31:12;;;;;;;10.90;5.80;;;18.90;91.70;;;;;;5034804;28;20476;-70
2021/09/11 03:33:58;;;;;;;7.43;6.33;;;18.80;91.70;;;;;;5049223;28;20429;-67
2021/09/11 03:36:41;;;;;;;7.33;6.63;;;18.80;91.80;;;;;;5055781;28;20432;-67
2021/09/11 03:39:53;;;;;;;6.40;5.80;;;18.70;92.20;;;;;;5038193;28;20495;-67
2021/09/11 03:42:27;;;;;;;6.57;5.93;;;18.70;92.50;;;;;;5007371;28;20434;-67
2021/09/11 03:45:32;;;;;;;6.90;6.10;;;18.70;92.40;;;;;;5035921;28;20916;-67
2021/09/11 03:48:25;;;;;;;7.07;6.37;;;18.70;92.30;;;;;;5036307;28;20442;-67
2021/09/11 03:50:52;;;;;;;6.03;5.43;;;18.80;92.30;;;;;;5035890;28;20433;-67
2021/09/11 03:53:32;;;;;;;8.80;7.07;;;18.60;92.60;;;;;;5034419;28;20503;-68
2021/09/11 03:56:04;;;;;;;7.93;7.13;;;18.60;93.10;;;;;;5034638;28;20437;-67
2021/09/11 03:58:33;;;;;;;8.03;6.90;;;18.60;93.30;;;;;;5034163;28;20468;-67
2021/09/11 04:01:05;;;;;;;6.57;5.80;;;18.60;93.50;;;;;;5034334;28;20450;-67
2021/09/11 04:03:32;;;;;;;5.80;4.87;;;18.60;93.40;;;;;;5044638;28;20439;-67
2021/09/11 04:06:01;;;;;;;7.40;5.70;;;18.60;93.30;;;;;;5054654;28;20480;-67
2021/09/11 04:08:30;;;;;;;7.20;6.10;;;18.60;93.10;;;;;;5044803;28;20476;-67
2021/09/11 04:10:57;;;;;;;7.60;6.27;;;18.60;93.10;;;;;;5034560;28;20446;-67
2021/09/11 04:13:26;;;;;;;8.83;7.00;;;18.60;93.20;;;;;;5034153;28;20433;-67
2021/09/11 04:15:53;;;;;;;10.13;7.10;;;18.60;93.40;;;;;;5037423;28;20868;-67
2021/09/11 04:18:21;;;;;;;7.30;6.33;;;18.70;93.70;;;;;;5054388;28;20524;-67
2021/09/11 04:20:49;;;;;;;6.60;5.47;;;18.60;94.00;;;;;;5051327;28;20941;-68
2021/09/11 04:23:16;;;;;;;8.13;7.23;;;18.70;93.50;;;;;;5034370;28;20855;-67
2021/09/11 04:25:47;;;;;;;8.40;6.00;;;18.70;93.60;;;;;;5051003;28;20512;-67
2021/09/11 04:28:14;;;;;;;9.40;5.77;;;18.70;93.40;;;;;;5054244;28;20476;-67
2021/09/11 04:30:46;;;;;;;6.47;5.73;;;18.60;93.50;;;;;;5036503;28;20485;-68
2021/09/11 04:33:13;;;;;;;6.57;5.97;;;18.60;93.60;;;;;;5034291;28;20525;-68
2021/09/11 04:35:42;;;;;;;7.67;6.40;;;18.50;93.70;;;;;;5034117;28;20473;-68
2021/09/11 04:38:14;;;;;;;6.93;5.90;;;18.50;93.90;;;;;;5033976;28;20438;-67
2021/09/11 04:40:43;;;;;;;7.13;6.43;;;18.40;94.30;;;;;;5033862;28;20524;-68
2021/09/11 04:43:10;;;;;;;8.67;6.23;;;18.30;94.70;;;;;;5033544;28;20521;-67
2021/09/11 04:45:37;;;;;;;9.87;7.17;;;18.20;94.90;;;;;;5033547;28;20560;-67
2021/09/11 04:48:09;;;;;;;7.77;6.57;;;18.00;95.60;;;;;;5034008;28;20430;-68
2021/09/11 04:50:42;;;;;;;9.37;7.40;;;18.00;96.20;;;;;;5033699;28;20952;-67
2021/09/11 04:53:09;;;;;;;8.10;7.27;;;18.00;96.30;;;;;;5034050;28;20495;-67
2021/09/11 04:55:36;;;;;;;7.10;6.40;;;18.00;96.40;;;;;;5045788;28;20532;-68
2021/09/11 04:58:06;;;;;;;6.87;6.17;;;17.90;96.60;;;;;;5048978;28;20849;-68
2021/09/11 05:00:38;;;;;;;7.93;6.40;;;17.80;96.70;;;;;;5040507;28;20440;-67
2021/09/11 05:03:10;;;;;;;8.47;7.30;;;17.80;97.20;;;;;;5037200;28;20433;-67
2021/09/11 05:05:37;;;;;;;7.83;6.90;;;17.80;97.40;;;;;;5046390;28;20491;-68
2021/09/11 05:08:07;;;;;;;8.80;7.20;;;17.80;97.40;;;;;;5050733;28;20434;-67
2021/09/11 05:10:35;;;;;;;7.90;6.33;;;17.80;97.40;;;;;;5050778;28;20491;-67
2021/09/11 05:13:02;;;;;;;7.30;6.53;;;17.90;97.30;;;;;;5050690;28;20441;-68
2021/09/11 05:15:30;;;;;;;7.87;7.07;;;17.90;97.20;;;;;;5050451;28;20441;-67
2021/09/11 05:18:02;;;;;;;8.87;7.40;;;17.90;97.40;;;;;;5035423;28;20474;-68
2021/09/11 05:20:29;;;;;;;8.77;6.57;;;18.00;97.40;;;;;;5032826;28;20511;-67
2021/09/11 05:22:57;;;;;;;8.07;7.07;;;18.00;97.70;;;;;;5032725;28;20441;-68
2021/09/11 05:25:26;;;;;;;7.10;6.40;;;18.10;98.10;;;;;;5036781;28;20498;-68
2021/09/11 05:27:53;;;;;;;10.00;7.17;;;18.10;97.70;;;;;;5032605;28;20446;-68
2021/09/11 05:30:26;;;;;;;8.13;6.90;;;18.10;97.30;;;;;;5032543;28;20481;-68
2021/09/11 05:32:55;;;;;;;10.53;7.43;;;18.20;97.30;;;;;;5032545;28;20492;-69
2021/09/11 05:35:27;;;;;;;7.70;6.03;;;18.30;97.10;;;;;;5032568;28;20517;-68
2021/09/11 05:37:54;;;;;;;8.17;7.37;;;18.30;97.30;;;;;;5032602;28;20524;-67
2021/09/11 05:40:23;;;;;;;8.30;7.33;;;18.40;96.90;;;;;;5032443;28;20434;-68
2021/09/11 05:42:53;;;;;;;7.60;6.80;;;18.40;97.00;;;;;;5032408;28;20532;-67
2021/09/11 05:45:23;;;;;;;7.60;6.80;;;18.40;96.80;;;;;;5032125;28;20445;-68
2021/09/11 05:47:55;;;;;;;8.67;7.37;;;18.40;96.70;;;;;;5032036;28;20442;-67
2021/09/11 05:50:27;;;;;;;8.03;7.23;;;18.50;96.50;;;;;;5032427;28;20947;-67
2021/09/11 05:52:55;;;;;;;6.10;5.50;;;18.50;96.40;;;;;;5035363;28;20429;-69
2021/09/11 05:55:25;;;;;;;6.73;6.00;;;18.50;96.10;;;;;;5048044;28;20433;-67
2021/09/11 05:58:20;;;;;;;10.77;6.00;;;18.50;95.70;;;;;;5032013;28;20457;-69
2021/09/11 06:03:43;;;;;;;7.20;6.30;;;18.40;95.50;;;;;;5032385;28;20434;-68
2021/09/11 06:06:36;;;;;;;6.20;5.13;;;18.30;95.90;;;;;;5032120;28;20478;-69
2021/09/11 06:09:40;;;;;;;10.70;7.00;;;18.30;96.10;;;;;;5032279;28;20882;-69
2021/09/11 06:12:43;;;;;;;9.57;5.57;;;18.30;96.10;;;;;;5033358;28;20465;-69
2021/09/11 06:15:21;;;;;;;7.40;6.23;;;18.30;96.10;;;;;;5031189;28;20916;-70
2021/09/11 06:17:54;;;;;;;7.57;6.87;;;18.30;96.30;;;;;;5033021;28;20504;-69
2021/09/11 06:20:27;;;;;;;7.17;6.47;;;18.30;96.70;;;;;;5038173;28;20421;-69
2021/09/11 06:22:57;;;;;;;6.73;5.97;;;18.30;96.70;;;;;;5050470;28;20482;-69
2021/09/11 06:25:28;;;;;;;7.43;6.30;;;18.30;96.80;;;;;;5032490;28;20763;-69
2021/09/11 06:27:58;;;;;;;6.17;5.37;;;18.30;96.70;;;;;;5032392;28;20539;-69
2021/09/11 06:30:30;;;;;;;6.53;5.93;;;18.30;96.80;;;;;;5031941;28;20442;-67
2021/09/11 06:33:13;;;;;;;6.63;5.87;;;18.40;96.80;;;;;;5032941;28;20442;-68
2021/09/11 06:36:12;;;;;;;9.10;6.40;;;18.40;96.70;;;;;;5032553;28;20476;-69
2021/09/11 06:38:45;;;;;;;7.50;6.00;;;18.40;96.70;;;;;;5050667;28;20811;-68
2021/09/11 06:41:21;;;;;;;7.60;6.80;;;18.40;96.50;;;;;;5052579;28;20441;-68
2021/09/11 06:43:53;;;;;;;6.63;5.90;;;18.40;96.60;;;;;;5051429;28;20500;-69
2021/09/11 06:46:32;;;;;;;8.00;5.10;;;18.50;96.70;;;;;;5052254;28;20516;-68
2021/09/11 06:49:00;;;;;;;6.70;6.00;;;18.50;96.70;;;;;;5052657;28;20788;-69
2021/09/11 06:51:36;;;;;;;6.00;5.40;;;18.40;96.60;;;;;;5052386;28;20929;-68
2021/09/11 06:54:24;;;;;;;8.37;6.10;;;18.40;96.50;;;;;;5039436;28;20971;-69
2021/09/11 06:56:52;;;;;;;7.13;5.73;;;18.50;97.20;;;;;;5032204;28;20932;-69
2021/09/11 06:59:26;;;;;;;8.40;5.90;;;18.60;97.10;;;;;;5033152;28;20492;-68
2021/09/11 07:01:57;;;;;;;6.50;5.40;;;18.60;96.90;;;;;;5032891;28;20951;-68
2021/09/11 07:04:32;;;;;;;6.77;5.17;;;18.70;96.30;;;;;;5032077;28;20797;-69
2021/09/11 07:07:03;;;;;;;7.10;6.03;;;18.70;96.40;;;;;;5033611;28;20481;-68
2021/09/11 07:09:31;;;;;;;7.80;5.10;;;18.70;96.20;;;;;;5035268;28;20444;-69
2021/09/11 07:11:59;;;;;;;5.73;4.67;;;18.80;96.60;;;;;;5038439;28;20442;-68
2021/09/11 07:14:50;;;;;;;6.10;5.50;;;18.80;96.10;;;;;;5053271;28;20441;-68
2021/09/11 07:17:24;;;;;;;6.87;6.17;;;18.80;96.10;;;;;;5035095;28;20501;-68
2021/09/11 07:19:51;;;;;;;5.90;5.30;;;18.90;96.20;;;;;;5038422;28;20449;-69
2021/09/11 07:22:34;;;;;;;5.53;4.53;;;19.00;96.10;;;;;;5033999;28;20536;-69
2021/09/11 07:25:05;;;;;;;5.10;4.60;;;19.10;96.00;;;;;;5034933;28;20962;-68
2021/09/11 07:27:34;;;;;;;6.50;4.90;;;19.20;95.20;;;;;;5034445;28;20551;-68
2021/09/11 07:30:06;;;;;;;4.63;4.23;;;19.30;95.30;;;;;;5034162;28;20442;-68
2021/09/11 07:32:35;;;;;;;4.83;4.33;;;19.40;95.00;;;;;;5034995;28;20433;-69
2021/09/11 07:35:08;;;;;;;9.13;4.90;;;19.50;95.00;;;;;;5048253;28;20497;-68
2021/09/11 07:37:35;;;;;;;6.40;5.30;;;19.60;95.30;;;;;;5047560;28;20548;-69
2021/09/11 07:40:06;;;;;;;6.50;5.00;;;19.80;95.10;;;;;;5034819;28;20442;-68
2021/09/11 07:42:37;;;;;;;6.10;4.80;;;20.00;94.80;;;;;;5038288;28;20976;-69
2021/09/11 07:45:06;;;;;;;6.30;5.20;;;20.20;94.10;;;;;;5034758;28;20816;-68
2021/09/11 07:47:36;;;;;;;4.60;3.83;;;20.30;93.90;;;;;;5036720;28;20473;-68
2021/09/11 07:50:04;;;;;;;5.40;3.93;;;20.40;92.40;;;;;;5034233;28;20441;-68
2021/09/11 07:52:31;;;;;;;5.97;4.70;;;20.40;91.90;;;;;;5041721;28;20452;-68
2021/09/11 07:54:57;;;;;;;5.87;4.23;;;20.50;92.70;;;;;;5052422;28;20839;-69
2021/09/11 07:57:24;;;;;;;4.43;3.90;;;20.60;92.20;;;;;;5038407;28;20512;-69
2021/09/11 07:59:51;;;;;;;5.30;3.87;;;20.80;92.40;;;;;;5034812;28;20520;-68
2021/09/11 08:02:18;;;;;;;5.17;4.10;;;21.00;91.70;;;;;;5034171;28;20509;-68
2021/09/11 08:04:46;;;;;;;6.07;4.30;;;21.20;91.80;;;;;;5034582;28;20441;-69
2021/09/11 08:07:17;;;;;;;4.07;3.67;;;21.40;90.40;;;;;;5048590;28;20571;-69
2021/09/11 08:09:47;;;;;;;6.00;3.90;;;21.50;91.00;;;;;;5037294;28;20477;-69
2021/09/11 08:12:16;;;;;;;4.80;4.30;;;22.00;90.90;;;;;;5049018;28;20514;-68
2021/09/11 08:14:45;;;;;;;5.50;4.20;;;22.60;90.20;;;;;;5051322;28;20519;-69
2021/09/11 08:17:14;;;;;;;4.20;3.80;;;23.40;89.10;;;;;;5036015;28;20553;-69
2021/09/11 08:19:41;;;;;;;5.00;3.43;;;24.80;84.40;;;;;;5033347;28;20516;-69
2021/09/11 08:22:10;;;;;;;4.13;3.73;;;25.60;77.00;;;;;;5033973;28;20902;-69
2021/09/11 08:24:36;;;;;;;4.30;3.87;;;25.60;71.90;;;;;;5034019;28;20536;-69
2021/09/11 08:27:08;;;;;;;4.00;3.30;;;25.50;70.50;;;;;;5046288;28;20484;-69
2021/09/11 08:29:44;;;;;;;4.90;3.87;;;25.30;69.40;;;;;;5043098;28;20529;-69
2021/09/11 08:32:17;;;;;;;3.90;3.27;;;25.10;71.30;;;;;;5033181;28;20939;-69
2021/09/11 08:34:44;;;;;;;6.53;4.20;;;24.90;68.60;;;;;;5035308;28;20455;-70
2021/09/11 08:37:16;;;;;;;4.83;3.90;;;24.40;70.00;;;;;;5048075;28;20460;-69
2021/09/11 08:39:43;;;;;;;5.27;3.30;;;24.20;70.10;;;;;;5035475;28;20441;-69
2021/09/11 08:42:11;;;;;;;4.63;3.70;;;24.00;70.90;;;;;;5033583;28;20482;-68
2021/09/11 08:44:38;;;;;;;5.60;4.30;;;23.70;72.00;;;;;;5033489;28;20445;-71
2021/09/11 08:47:16;;;;;;;4.33;3.87;;;23.40;73.20;;;;;;5033652;28;20967;-69
2021/09/11 08:49:43;;;;;;;5.63;3.90;;;23.20;73.20;;;;;;5033981;28;20537;-69
2021/09/11 08:52:16;;;;;;;6.07;3.27;;;22.90;72.00;;;;;;5033642;28;20512;-69
2021/09/11 08:54:43;;;;;;;4.80;4.30;;;22.70;75.10;;;;;;5033615;28;20889;-69
2021/09/11 08:57:23;;;;;;;4.50;3.70;;;22.60;75.40;;;;;;5040736;28;20540;-70
2021/09/11 08:59:54;;;;;;;4.10;3.70;;;22.50;74.50;;;;;;5033233;28;20437;-69
2021/09/11 09:02:23;;;;;;;3.60;3.17;;;22.40;73.90;;;;;;5032906;28;20956;-69
2021/09/11 09:04:51;;;;;;;4.00;3.57;;;22.10;75.10;;;;;;5034715;28;20834;-69
2021/09/11 09:07:33;;;;;;;7.63;4.47;;;21.90;76.70;;;;;;5044050;28;20969;-69
2021/09/11 09:10:00;;;;;;;4.67;4.20;;;22.00;78.10;;;;;;5049600;28;20849;-69
2021/09/11 09:12:32;;;;;;;5.53;4.97;;;22.10;79.30;;;;;;5031963;28;20470;-68
2021/09/11 09:15:12;;;;;;;5.60;4.80;;;22.40;80.60;;;;;;5031048;28;20441;-69
2021/09/11 09:17:47;;;;;;;5.00;3.93;;;22.60;82.00;;;;;;5032324;28;20505;-68
2021/09/11 09:20:21;;;;;;;4.87;3.90;;;22.80;82.40;;;;;;5039593;28;20507;-69
2021/09/11 09:22:51;;;;;;;5.23;4.00;;;22.90;80.20;;;;;;5032517;28;20430;-69
2021/09/11 09:25:27;;;;;;;4.63;3.73;;;22.90;76.80;;;;;;5039041;28;20521;-68
2021/09/11 09:28:00;;;;;;;4.80;4.00;;;22.90;77.30;;;;;;5049030;28;20488;-69
2021/09/11 09:30:38;;;;;;;4.53;4.00;;;23.00;78.20;;;;;;5048708;28;20548;-68
2021/09/11 09:33:07;;;;;;;4.50;4.10;;;23.10;79.60;;;;;;5045547;28;20438;-69
2021/09/11 09:35:35;;;;;;;4.33;3.60;;;23.00;78.30;;;;;;5032359;28;20515;-69
2021/09/11 09:38:07;;;;;;;5.27;4.77;;;22.90;74.90;;;;;;5034692;28;20436;-69
2021/09/11 09:40:39;;;;;;;4.93;4.30;;;22.80;75.60;;;;;;5049369;28;20844;-69
2021/09/11 09:43:11;;;;;;;6.13;4.07;;;22.60;74.60;;;;;;5049864;28;20520;-68
2021/09/11 09:45:40;;;;;;;5.57;5.07;;;22.40;76.30;;;;;;5049845;28;20447;-68
2021/09/11 09:48:10;;;;;;;5.20;4.40;;;22.30;77.60;;;;;;5038753;28;20579;-68
2021/09/11 09:50:38;;;;;;;4.80;4.30;;;22.10;76.90;;;;;;5049577;28;20457;-68
2021/09/11 09:53:13;;;;;;;5.73;5.17;;;22.00;77.70;;;;;;5041388;28;20436;-68
2021/09/11 09:55:42;;;;;;;7.00;6.00;;;21.90;77.90;;;;;;5031966;28;20425;-69
2021/09/11 09:58:12;;;;;;;5.70;5.10;;;21.80;78.30;;;;;;5029705;28;20480;-69
2021/09/11 10:00:40;;;;;;;6.33;5.63;;;21.80;79.20;;;;;;5031999;28;20564;-70
2021/09/11 10:03:09;;;;;;;7.43;6.40;;;21.80;80.20;;;;;;5032519;28;20429;-69
2021/09/11 10:05:42;;;;;;;7.10;5.47;;;21.80;78.80;;;;;;5032206;28;21169;-68
2021/09/11 10:08:18;;;;;;;5.27;4.77;;;21.90;80.30;;;;;;5025649;28;20508;-70
2021/09/11 10:10:48;;;;;;;8.97;5.10;;;22.30;81.40;;;;;;5027925;28;20449;-70
2021/09/11 10:13:17;;;;;;;6.53;4.90;;;22.90;76.00;;;;;;5025952;28;20438;-70
2021/09/11 10:15:55;;;;;;;4.67;4.17;;;23.30;74.70;;;;;;5029133;28;20479;-69
2021/09/11 10:18:50;;;;;;;7.70;5.60;;;23.70;73.80;;;;;;5030597;28;20438;-69
2021/09/11 10:21:24;;;;;;;5.67;4.47;;;24.30;76.70;;;;;;5022871;28;20450;-70
2021/09/11 10:24:31;;;;;;;4.47;4.03;;;25.50;72.20;;;;;;5048476;28;20520;-68
2021/09/11 10:27:02;;;;;;;4.20;3.80;;;26.70;66.90;;;;;;5036923;28;20453;-68
2021/09/11 10:29:50;;;;;;;6.07;3.80;;;29.80;63.80;;;;;;5041141;28;20441;-69
2021/09/11 10:32:19;;;;;;;4.87;4.47;;;30.80;54.50;;;;;;5031559;28;20484;-69
2021/09/11 10:34:56;;;;;;;4.73;3.67;;;31.30;48.80;;;;;;5038587;28;20531;-70
2021/09/11 10:37:30;;;;;;;6.30;5.47;;;30.70;49.90;;;;;;5026687;28;20844;-68
2021/09/11 10:40:37;;;;;;;4.80;4.40;;;30.00;49.30;;;;;;5027964;28;21027;-72
2021/09/11 10:43:24;;;;;;;5.70;5.17;;;29.10;48.40;;;;;;5041403;28;20479;-69
2021/09/11 10:46:02;;;;;;;5.23;4.70;;;28.90;52.20;;;;;;5034333;28;20461;-68
2021/09/11 10:48:34;;;;;;;8.30;7.40;;;29.40;52.10;;;;;;5035280;28;21201;-69
2021/09/11 10:51:29;;;;;;;5.30;4.53;;;29.40;50.70;;;;;;5035941;28;20828;-69
2021/09/11 10:54:09;;;;;;;5.30;4.80;;;28.80;48.40;;;;;;5038836;28;20449;-69
2021/09/11 10:56:45;;;;;;;6.20;4.23;;;28.20;49.80;;;;;;5034388;28;20429;-70
2021/09/11 10:59:31;;;;;;;5.30;4.80;;;27.80;50.30;;;;;;5034578;28;20506;-70
2021/09/11 11:02:07;;;;;;;7.23;4.70;;;27.40;51.50;;;;;;5031802;28;20911;-70
2021/09/11 11:04:52;;;;;;;5.30;4.73;;;26.70;52.20;;;;;;5042247;28;20461;-69
2021/09/11 11:07:22;;;;;;;6.40;5.07;;;26.10;52.30;;;;;;5040364;28;20477;-69
2021/09/11 11:09:50;;;;;;;5.63;4.87;;;25.60;54.30;;;;;;5043568;28;20449;-68
2021/09/11 11:12:22;;;;;;;7.07;4.77;;;25.40;56.00;;;;;;5041676;28;20465;-68
2021/09/11 11:14:54;;;;;;;4.73;4.27;;;25.20;56.90;;;;;;5044315;28;20465;-69
2021/09/11 11:17:26;;;;;;;7.33;4.10;;;25.00;57.50;;;;;;5042661;28;20977;-68
2021/09/11 11:19:56;;;;;;;5.47;4.83;;;24.90;57.70;;;;;;5052212;28;20480;-68
2021/09/11 11:22:29;;;;;;;7.40;4.70;;;24.80;57.80;;;;;;5044898;28;20987;-68
2021/09/11 11:24:57;;;;;;;4.80;3.83;;;24.60;57.70;;;;;;5034066;28;20549;-68
2021/09/11 11:27:27;;;;;;;5.17;4.53;;;24.40;58.20;;;;;;5038221;28;20921;-68
2021/09/11 11:29:56;;;;;;;5.80;4.97;;;24.40;60.30;;;;;;5041238;28;20545;-68
2021/09/11 11:32:32;;;;;;;5.77;4.43;;;24.50;62.10;;;;;;5039764;28;20886;-68
2021/09/11 11:35:05;;;;;;;4.63;4.13;;;25.20;62.80;;;;;;5040488;28;20441;-68
2021/09/11 11:37:34;;;;;;;4.23;3.70;;;27.40;61.20;;;;;;5040799;28;20470;-69
2021/09/11 11:40:07;;;;;;;4.57;3.40;;;29.00;55.00;;;;;;5043520;28;20517;-68
2021/09/11 11:42:38;;;;;;;4.47;3.50;;;30.00;52.90;;;;;;5041217;28;20540;-68
2021/09/11 11:45:08;;;;;;;4.17;3.77;;;30.20;49.60;;;;;;5040546;28;20482;-69
2021/09/11 11:47:43;;;;;;;5.03;4.47;;;31.50;53.30;;;;;;5042211;28;20574;-69
2021/09/11 11:50:20;;;;;;;6.90;3.60;;;33.40;45.30;;;;;;5040861;28;20534;-69
2021/09/11 11:52:53;;;;;;;4.30;3.10;;;33.20;43.30;;;;;;5041922;28;20477;-68
2021/09/11 11:55:22;;;;;;;4.30;3.30;;;32.30;43.20;;;;;;5042224;28;20540;-70
2021/09/11 11:57:51;;;;;;;3.97;3.37;;;31.40;42.00;;;;;;5043600;28;20527;-69
2021/09/11 12:00:24;;;;;;;4.27;3.87;;;30.50;44.10;;;;;;5042735;28;20482;-69
2021/09/11 12:02:51;;;;;;;6.20;3.90;;;29.70;46.60;;;;;;5038104;28;20777;-68
2021/09/11 12:05:25;;;;;;;5.27;3.80;;;29.00;49.20;;;;;;5041692;28;20439;-69
2021/09/11 12:07:54;;;;;;;4.37;3.40;;;28.60;50.50;;;;;;5044039;28;20520;-68
2021/09/11 12:10:22;;;;;;;4.43;3.90;;;28.50;51.40;;;;;;5040702;28;20798;-68
2021/09/11 12:12:55;;;;;;;4.10;3.70;;;28.50;51.70;;;;;;5038311;28;20530;-69
2021/09/11 12:15:27;;;;;;;5.30;4.10;;;28.80;52.70;;;;;;5041012;28;20930;-69
2021/09/11 12:18:00;;;;;;;4.07;3.67;;;29.40;51.10;;;;;;5037892;28;20561;-69
2021/09/11 12:20:29;;;;;;;4.30;3.27;;;30.20;49.70;;;;;;5041907;28;20995;-69
2021/09/11 12:23:11;;;;;;;5.17;4.17;;;31.00;50.80;;;;;;5039655;28;20536;-70
2021/09/11 12:25:56;;;;;;;3.70;3.30;;;32.00;49.60;;;;;;5041808;28;20445;-69
2021/09/11 12:28:45;;;;;;;3.90;3.50;;;32.70;46.20;;;;;;5040662;28;20489;-69
2021/09/11 12:31:32;;;;;;;3.70;2.87;;;33.20;45.00;;;;;;5040958;28;20857;-70
2021/09/11 12:34:01;;;;;;;3.33;2.37;;;33.30;44.30;;;;;;5038853;28;20876;-72
2021/09/11 12:36:40;;;;;;;3.27;2.70;;;33.80;44.20;;;;;;5039633;28;20949;-69
2021/09/11 12:39:23;;;;;;;3.60;3.27;;;33.80;38.40;;;;;;5039758;28;20528;-71
2021/09/11 12:41:55;;;;;;;3.63;3.30;;;33.80;40.40;;;;;;5042081;28;20437;-69
2021/09/11 12:44:25;;;;;;;3.37;2.87;;;34.00;36.90;;;;;;5039077;28;20485;-69
2021/09/11 12:46:53;;;;;;;4.63;3.17;;;34.00;39.60;;;;;;5038964;28;20434;-70
2021/09/11 12:49:31;;;;;;;4.50;3.90;;;33.90;40.20;;;;;;5041680;28;20623;-69
2021/09/11 12:52:00;;;;;;;5.03;3.10;;;33.50;39.90;;;;;;5039544;28;20927;-69
2021/09/11 12:54:27;;;;;;;2.93;2.57;;;32.90;39.40;;;;;;5040010;28;20965;-68
2021/09/11 12:56:55;;;;;;;3.67;2.50;;;32.20;38.50;;;;;;5041683;28;20540;-69
2021/09/11 12:59:24;;;;;;;3.03;2.37;;;31.50;39.10;;;;;;5040532;28;20485;-68
2021/09/11 13:01:51;;;;;;;2.60;2.10;;;30.70;39.70;;;;;;5041017;28;20532;-69
2021/09/11 13:04:24;;;;;;;3.60;2.23;;;29.90;40.50;;;;;;5039977;28;20479;-68
2021/09/11 13:06:54;;;;;;;3.63;2.43;;;29.10;42.20;;;;;;5041874;28;20452;-69
2021/09/11 13:09:21;;;;;;;4.67;2.33;;;28.60;43.30;;;;;;5040342;28;20489;-68
2021/09/11 13:11:48;;;;;;;4.63;3.00;;;28.10;45.30;;;;;;5040951;28;20949;-69
2021/09/11 13:14:17;;;;;;;3.30;2.40;;;27.80;45.90;;;;;;5040228;28;20844;-69
2021/09/11 13:16:46;;;;;;;3.53;2.60;;;27.50;46.80;;;;;;5042974;28;20467;-68